Irving, TX (75014)

5:59 PM CDT on August 30, 2015 (GMT -0500)
Toler Lane, Irving, Texas USA | | Change Station
CLOSE
Current Station
Personal Weather Station
Location: Irving, TX
Elevation: 551 ft
Nearby Weather Stations

Elev 551 ft 32.84 °N, 96.96 °W | Updated 3 seconds ago

Mostly Cloudy
Mostly Cloudy
94.4 °F
Feels Like 100 °F
N
5.8
Wind Variable Wind from SSW
Gusts 5.8 mph

Today
High -- | Low -- °F
--% Chance of Precip.
Yesterday
High -- | Low -- °F
Precip. -- in
7:01 AM 7:55 PM
Full, 98% visible
Pressure 29.88 in
Visibility 10.0 miles
Clouds Few 6000 ft
Scattered Clouds 8000 ft
Mostly Cloudy 30000 ft
Heat Index 100 °F
Dew Point 69 °F
Humidity 44%
Rainfall 0.00 in
Snow Depth Not available.
UV 1 out of 12
Pollen 8.70 out of 12
Air Quality Not available.
Flu Activity Not available.
METAR KDFW 302253Z 16006KT 10SM FEW060 SCT080 BKN300 34/16 A2991 RMK AO2 LTG DSNT E SLP118 CB DSNT E STNRY T03390161
Pressure 29.88 in
Visibility 10.0 miles
Clouds Few 6000 ft
Scattered Clouds 8000 ft
Mostly Cloudy 30000 ft
Heat Index 100 °F
Dew Point 69 °F
Humidity 44%
Rainfall 0.00 in
Snow Depth Not available.
UV 1 out of 12
Pollen 8.70 out of 12
Air Quality Not available.
Flu Activity Not available.
METAR KDFW 302253Z 16006KT 10SM FEW060 SCT080 BKN300 34/16 A2991 RMK AO2 LTG DSNT E SLP118 CB DSNT E STNRY T03390161

10-Day Weather Forecast

×

Almanac

Astronomy

Aug. 30, 2015 Rise Set
Actual Time
Civil Twilight
Nautical Twilight
Astronomical Twilight
Moon
Length of Visible Light
Length of Day
Tomorrow will be .
, % of the Moon is Illuminated

Today's Extremes

State Highs State Lows

Community

WunderPhotos

Upload Photos

1,851,075 photos uploaded!

WunderBlogs® & News

Nearby

Air Quality

  Air Quality AQ Index Pollutant
Not available.

Snow Depth

Station Depth Elevation

Earthquake Activity

City Distance Mag. Time & Date
Minimum magnitude displayed is 2.5.

Coastal Water Temperatures

Place Temperature

Stations

Nearby Weather Stations

Station Location Temp. Windchill Dew Point Humidity Wind Precip. Elev Updated Type